createdAt,value
2018-12-01T00:00:35.093Z,16.20
2018-12-01T00:01:35.098Z,16.50
2018-12-01T00:02:35.660Z,28.90
2018-12-01T00:03:35.113Z,20.40
2018-12-01T00:04:35.119Z,24.40
2018-12-01T00:05:35.127Z,34.70
2018-12-01T00:06:35.129Z,31.20
2018-12-01T00:07:35.136Z,27.10
2018-12-01T00:08:35.145Z,36.40
2018-12-01T00:09:35.150Z,34.90
2018-12-01T00:10:35.154Z,34.50
2018-12-01T00:11:35.167Z,34.30
2018-12-01T00:12:35.172Z,37.80
2018-12-01T00:13:35.178Z,39.80
2018-12-01T00:14:35.184Z,34.20
2018-12-01T00:15:35.188Z,14.60
2018-12-01T00:16:35.194Z,23.20
2018-12-01T00:17:35.199Z,23.50
2018-12-01T00:18:35.207Z,21.10
2018-12-01T00:19:35.213Z,27.00
2018-12-01T00:20:35.224Z,13.60
2018-12-01T00:21:35.229Z,30.30
2018-12-01T00:22:35.232Z,27.80
2018-12-01T00:23:35.240Z,28.20
2018-12-01T00:24:35.245Z,27.80
2018-12-01T00:25:35.251Z,29.00
2018-12-01T00:26:35.257Z,27.40
2018-12-01T00:27:35.267Z,27.70
2018-12-01T00:28:35.272Z,18.40
2018-12-01T00:29:35.276Z,21.60
2018-12-01T00:30:35.283Z,18.80
2018-12-01T00:31:35.290Z,18.50
2018-12-01T00:32:35.304Z,31.40
2018-12-01T00:33:35.303Z,35.30
2018-12-01T00:34:35.310Z,35.80
2018-12-01T00:35:35.318Z,27.20
2018-12-01T00:36:35.323Z,22.60
2018-12-01T00:37:35.327Z,24.30
2018-12-01T00:38:35.335Z,20.30
2018-12-01T00:39:35.342Z,21.50
2018-12-01T00:40:35.347Z,21.10
2018-12-01T00:41:35.353Z,16.80
2018-12-01T00:42:35.360Z,11.90
2018-12-01T00:43:35.367Z,7.70
2018-12-01T00:44:35.375Z,6.60
2018-12-01T00:45:35.379Z,6.00
2018-12-01T00:46:35.386Z,7.80
2018-12-01T00:47:35.398Z,8.30
2018-12-01T00:48:35.400Z,10.90
2018-12-01T00:49:35.406Z,7.20
2018-12-01T00:50:35.411Z,6.40
2018-12-01T00:51:35.420Z,7.80
2018-12-01T00:52:35.431Z,9.70
2018-12-01T00:53:35.432Z,6.80
2018-12-01T00:54:35.437Z,14.10
2018-12-01T00:55:35.446Z,13.40
2018-12-01T00:56:35.452Z,10.60
2018-12-01T00:57:35.456Z,12.80
2018-12-01T00:58:35.464Z,13.20
2018-12-01T00:59:35.474Z,16.60
2018-12-01T01:00:35.476Z,15.60
2018-12-01T01:01:35.482Z,4.80
2018-12-01T01:02:35.489Z,3.10
2018-12-01T01:03:35.497Z,3.30
2018-12-01T01:04:35.502Z,2.50
2018-12-01T01:05:35.508Z,2.80
2018-12-01T01:06:35.514Z,2.40
2018-12-01T01:07:35.522Z,2.40
2018-12-01T01:08:35.530Z,2.30
2018-12-01T01:09:35.536Z,2.10
2018-12-01T01:10:35.540Z,2.00
2018-12-01T01:11:35.549Z,2.40
2018-12-01T01:12:35.560Z,2.10
2018-12-01T01:13:35.563Z,1.80
2018-12-01T01:14:35.568Z,2.10
2018-12-01T01:15:35.575Z,2.20
2018-12-01T01:16:35.588Z,10.30
2018-12-01T01:17:35.592Z,10.80
2018-12-01T01:18:35.595Z,14.60
2018-12-01T01:19:35.599Z,10.00
2018-12-01T01:20:35.607Z,9.40
2018-12-01T01:21:35.615Z,6.80
2018-12-01T01:22:35.621Z,13.60
2018-12-01T01:23:35.631Z,28.90
2018-12-01T01:24:35.633Z,23.30
2018-12-01T01:25:35.641Z,14.90
2018-12-01T01:26:35.648Z,12.70
2018-12-01T01:27:35.656Z,7.50
2018-12-01T01:28:35.661Z,6.70
2018-12-01T01:29:35.666Z,8.90
2018-12-01T01:30:35.674Z,10.30
2018-12-01T01:31:35.681Z,10.70
2018-12-01T01:32:35.696Z,9.20
2018-12-01T01:33:35.697Z,15.20
2018-12-01T01:34:35.699Z,7.30
2018-12-01T01:35:35.706Z,5.70
2018-12-01T01:36:35.713Z,7.70
2018-12-01T01:37:35.720Z,14.40
2018-12-01T01:38:35.726Z,27.30
2018-12-01T01:39:35.732Z,12.10
2018-12-01T01:40:35.739Z,9.70
2018-12-01T01:41:35.748Z,28.70
2018-12-01T01:42:35.752Z,32.30
2018-12-01T01:43:35.763Z,68.60
2018-12-01T01:44:35.765Z,64.00
2018-12-01T01:45:35.770Z,58.70
2018-12-01T01:46:35.778Z,20.80
2018-12-01T01:47:35.787Z,25.90
2018-12-01T01:48:35.794Z,27.90
2018-12-01T01:49:35.798Z,54.90
2018-12-01T01:50:35.803Z,53.40
2018-12-01T01:51:35.816Z,53.60
2018-12-01T01:52:35.819Z,61.70
2018-12-01T01:53:35.823Z,48.70
2018-12-01T01:54:35.831Z,49.10
2018-12-01T01:55:35.835Z,30.10
2018-12-01T01:56:35.843Z,19.60
2018-12-01T01:57:35.850Z,24.90
2018-12-01T01:58:35.862Z,29.90
2018-12-01T01:59:35.861Z,21.00
2018-12-01T02:00:35.876Z,32.60
2018-12-01T02:01:35.874Z,45.50
2018-12-01T02:02:35.882Z,44.90
2018-12-01T02:03:35.888Z,62.90
2018-12-01T02:04:35.898Z,23.30
2018-12-01T02:05:35.902Z,22.00
2018-12-01T02:06:35.906Z,26.30
2018-12-01T02:07:35.914Z,31.60
2018-12-01T02:08:35.921Z,40.80
2018-12-01T02:09:35.927Z,34.40
2018-12-01T02:10:35.931Z,34.60
2018-12-01T02:11:35.940Z,19.30
2018-12-01T02:12:35.943Z,31.10
2018-12-01T02:13:35.948Z,12.10
2018-12-01T02:14:35.956Z,27.90
2018-12-01T02:15:35.964Z,22.00
2018-12-01T02:16:35.972Z,13.20
2018-12-01T02:17:35.973Z,34.30
2018-12-01T02:18:35.980Z,24.90
2018-12-01T02:19:35.987Z,13.50
2018-12-01T02:20:36.000Z,11.20
2018-12-01T02:21:36.004Z,19.20
2018-12-01T02:22:36.005Z,21.00
2018-12-01T02:23:36.017Z,16.70
2018-12-01T02:24:36.018Z,15.90
2018-12-01T02:25:36.026Z,27.00
2018-12-01T02:26:36.031Z,35.40
2018-12-01T02:27:36.035Z,23.60
2018-12-01T02:28:36.045Z,27.80
2018-12-01T02:29:36.048Z,31.10
2018-12-01T02:30:36.056Z,31.50
2018-12-01T02:31:36.062Z,29.70
2018-12-01T02:32:36.070Z,32.00
2018-12-01T02:33:36.074Z,36.20
2018-12-01T02:34:36.082Z,28.80
2018-12-01T02:35:36.088Z,31.10
2018-12-01T02:36:36.094Z,31.60
2018-12-01T02:37:36.103Z,34.80
2018-12-01T02:38:36.109Z,33.40
2018-12-01T02:39:36.115Z,30.50
2018-12-01T02:40:36.122Z,39.60
2018-12-01T02:41:36.125Z,41.50
2018-12-01T02:42:36.129Z,38.10
2018-12-01T02:43:36.142Z,35.60
2018-12-01T02:44:36.144Z,39.60
2018-12-01T02:45:36.148Z,36.70
2018-12-01T02:46:36.156Z,33.70
2018-12-01T02:47:36.167Z,37.10
2018-12-01T02:48:36.169Z,32.00
2018-12-01T02:49:36.173Z,29.50
2018-12-01T02:50:36.179Z,33.30
2018-12-01T02:51:36.187Z,43.30
2018-12-01T02:52:36.192Z,40.90
2018-12-01T02:53:36.197Z,38.80
2018-12-01T02:54:36.205Z,40.40
2018-12-01T02:55:36.212Z,35.40
2018-12-01T02:56:36.220Z,35.00
2018-12-01T02:57:36.224Z,28.60
2018-12-01T02:58:36.232Z,30.80
2018-12-01T02:59:36.235Z,22.40
2018-12-01T03:00:36.240Z,38.20
2018-12-01T03:01:36.248Z,28.40
2018-12-01T03:02:36.253Z,31.70
2018-12-01T03:03:36.259Z,41.20
2018-12-01T03:04:36.266Z,33.70
2018-12-01T03:05:36.272Z,36.10
2018-12-01T03:06:36.281Z,30.00
2018-12-01T03:07:36.287Z,32.60
2018-12-01T03:08:36.291Z,26.70
2018-12-01T03:09:36.296Z,35.90
2018-12-01T03:10:36.302Z,36.90
2018-12-01T03:11:36.309Z,38.00
2018-12-01T03:12:36.315Z,38.00
2018-12-01T03:13:36.320Z,29.60
2018-12-01T03:14:36.330Z,33.60
2018-12-01T03:15:36.335Z,34.60
2018-12-01T03:16:36.341Z,34.50
2018-12-01T03:17:36.347Z,39.90
2018-12-01T03:18:36.352Z,39.70
2018-12-01T03:19:36.361Z,34.40
2018-12-01T03:20:36.367Z,41.30
2018-12-01T03:21:36.373Z,39.90
2018-12-01T03:22:36.377Z,43.80
2018-12-01T03:23:36.390Z,35.30
2018-12-01T03:24:36.391Z,34.50
2018-12-01T03:25:36.402Z,36.80
2018-12-01T03:26:36.403Z,38.50
2018-12-01T03:27:36.410Z,44.30
2018-12-01T03:28:36.415Z,41.30
2018-12-01T03:29:36.420Z,46.70
2018-12-01T03:30:36.427Z,44.00
2018-12-01T03:31:36.437Z,38.10
2018-12-01T03:32:36.446Z,51.20
2018-12-01T03:33:36.445Z,44.00
2018-12-01T03:34:36.453Z,44.90
2018-12-01T03:35:36.462Z,55.80
2018-12-01T03:36:36.465Z,52.90
2018-12-01T03:37:36.471Z,53.60
2018-12-01T03:38:36.477Z,46.70
2018-12-01T03:39:36.485Z,65.30
2018-12-01T03:40:36.493Z,60.40
2018-12-01T03:41:36.495Z,55.00
2018-12-01T03:42:36.502Z,55.00
2018-12-01T03:43:36.509Z,42.80
2018-12-01T03:44:36.519Z,45.70
2018-12-01T03:45:36.522Z,52.70
2018-12-01T03:46:36.527Z,64.90
2018-12-01T03:47:36.532Z,61.90
2018-12-01T03:48:36.539Z,56.90
2018-12-01T03:49:36.548Z,55.40
2018-12-01T03:50:36.552Z,32.30
2018-12-01T03:51:36.559Z,22.50
2018-12-01T03:52:36.564Z,19.80
2018-12-01T03:53:36.568Z,20.50
2018-12-01T03:54:36.576Z,29.00
2018-12-01T03:55:36.581Z,27.10
2018-12-01T03:56:36.588Z,40.30
2018-12-01T03:57:36.594Z,44.70
2018-12-01T03:58:36.600Z,44.60
2018-12-01T03:59:36.607Z,46.70
2018-12-01T04:00:36.613Z,42.70
2018-12-01T04:01:36.618Z,40.70
2018-12-01T04:02:36.627Z,44.50
2018-12-01T04:03:36.631Z,45.90
2018-12-01T04:04:36.636Z,43.80
2018-12-01T04:05:36.641Z,46.00
2018-12-01T04:06:36.648Z,48.40
2018-12-01T04:07:36.656Z,47.50
2018-12-01T04:08:36.664Z,39.10
2018-12-01T04:09:36.668Z,54.40
2018-12-01T04:10:36.672Z,51.20
2018-12-01T04:11:36.680Z,49.00
2018-12-01T04:12:36.689Z,40.30
2018-12-01T04:13:36.694Z,52.20
2018-12-01T04:14:36.701Z,48.10
2018-12-01T04:15:36.706Z,49.10
2018-12-01T04:16:36.713Z,47.80
2018-12-01T04:17:36.714Z,45.30
2018-12-01T04:18:36.721Z,55.30
2018-12-01T04:19:36.726Z,49.10
2018-12-01T04:20:36.734Z,44.50
2018-12-01T04:21:36.741Z,49.50
2018-12-01T04:22:36.746Z,46.50
2018-12-01T04:23:36.751Z,44.30
2018-12-01T04:24:36.760Z,36.20
2018-12-01T04:25:36.763Z,37.70
2018-12-01T04:26:36.769Z,35.80
2018-12-01T04:27:36.776Z,35.00
2018-12-01T04:28:36.784Z,42.00
2018-12-01T04:29:36.786Z,47.70
2018-12-01T04:30:36.792Z,42.40
2018-12-01T04:31:36.800Z,41.20
2018-12-01T04:32:36.807Z,41.40
2018-12-01T04:33:36.810Z,35.80
2018-12-01T04:34:36.817Z,43.10
2018-12-01T04:35:36.822Z,36.60
2018-12-01T04:36:36.830Z,30.40
2018-12-01T04:37:36.836Z,33.80
2018-12-01T04:38:36.839Z,29.30
2018-12-01T04:39:36.849Z,39.40
2018-12-01T04:40:36.851Z,39.30
2018-12-01T04:41:36.861Z,37.80
2018-12-01T04:42:36.862Z,38.00
2018-12-01T04:43:36.868Z,39.90
2018-12-01T04:44:36.876Z,35.60
2018-12-01T04:45:36.879Z,38.80
2018-12-01T04:46:36.890Z,41.60
2018-12-01T04:47:36.894Z,34.20
2018-12-01T04:48:36.902Z,36.90
2018-12-01T04:49:36.906Z,35.80
2018-12-01T04:50:36.921Z,44.00
2018-12-01T04:51:36.918Z,37.70
2018-12-01T04:52:36.923Z,36.60
2018-12-01T04:53:36.927Z,30.90
2018-12-01T04:54:36.940Z,26.60
2018-12-01T04:55:36.942Z,31.30
2018-12-01T04:56:36.954Z,26.50
2018-12-01T04:57:36.950Z,27.50
2018-12-01T04:58:36.956Z,32.60
2018-12-01T04:59:36.966Z,32.60
2018-12-01T05:00:36.966Z,39.00
2018-12-01T05:01:36.978Z,34.60
2018-12-01T05:02:36.988Z,29.80
2018-12-01T05:03:36.985Z,35.90
2018-12-01T05:04:36.993Z,33.70
2018-12-01T05:05:36.995Z,29.10
2018-12-01T05:06:37.010Z,25.90
2018-12-01T05:07:37.008Z,27.70
2018-12-01T05:08:37.014Z,29.70
2018-12-01T05:09:37.023Z,25.60
2018-12-01T05:10:37.025Z,23.70
2018-12-01T05:11:37.031Z,25.40
2018-12-01T05:12:37.037Z,28.00
2018-12-01T05:13:37.041Z,27.30
2018-12-01T05:14:37.047Z,26.60
2018-12-01T05:15:37.055Z,27.90
2018-12-01T05:16:37.059Z,24.40
2018-12-01T05:17:37.064Z,28.30
2018-12-01T05:18:37.072Z,30.90
2018-12-01T05:19:37.080Z,31.00
2018-12-01T05:20:37.086Z,27.80
2018-12-01T05:21:37.089Z,37.30
2018-12-01T05:22:37.092Z,32.80
2018-12-01T05:23:37.099Z,30.20
2018-12-01T05:24:37.106Z,30.40
2018-12-01T05:25:37.109Z,31.00
2018-12-01T05:26:37.115Z,22.20
2018-12-01T05:27:37.120Z,24.30
2018-12-01T05:28:37.129Z,22.00
2018-12-01T05:29:37.134Z,22.00
2018-12-01T05:30:37.138Z,34.20
2018-12-01T05:31:37.144Z,34.90
2018-12-01T05:32:37.152Z,21.70
2018-12-01T05:33:37.153Z,31.70
2018-12-01T05:34:37.160Z,32.50
2018-12-01T05:35:37.167Z,32.70
2018-12-01T05:36:37.169Z,27.70
2018-12-01T05:37:37.176Z,23.80
2018-12-01T05:38:37.188Z,28.60
2018-12-01T05:39:37.190Z,20.50
2018-12-01T05:40:37.194Z,19.30
2018-12-01T05:41:37.197Z,18.90
2018-12-01T05:42:37.206Z,19.50
2018-12-01T05:43:37.208Z,21.30
2018-12-01T05:44:37.216Z,19.20
2018-12-01T05:45:37.218Z,21.40
2018-12-01T05:46:37.223Z,19.60
2018-12-01T05:47:37.233Z,18.30
2018-12-01T05:48:37.234Z,17.90
2018-12-01T05:49:37.240Z,16.60
2018-12-01T05:50:37.246Z,18.30
2018-12-01T05:51:37.252Z,19.90
2018-12-01T05:52:37.259Z,22.50
2018-12-01T05:53:37.272Z,19.70
2018-12-01T05:54:37.266Z,18.90
2018-12-01T05:55:37.273Z,20.20
2018-12-01T05:56:37.275Z,15.20
2018-12-01T05:57:37.283Z,18.50
2018-12-01T05:58:37.292Z,19.10
2018-12-01T05:59:37.292Z,18.50
2018-12-01T06:00:37.298Z,23.90
2018-12-01T06:01:37.304Z,22.90
2018-12-01T06:02:37.307Z,20.20
2018-12-01T06:03:37.311Z,27.70
2018-12-01T06:04:37.320Z,28.80
2018-12-01T06:05:37.324Z,40.20
2018-12-01T06:06:37.328Z,47.20
2018-12-01T06:07:37.334Z,58.60
2018-12-01T06:08:37.339Z,64.70
2018-12-01T06:09:37.344Z,56.60
2018-12-01T06:10:37.348Z,57.60
2018-12-01T06:11:37.369Z,60.20
2018-12-01T06:12:37.362Z,44.30
2018-12-01T06:13:37.362Z,54.20
2018-12-01T06:14:37.368Z,55.20
2018-12-01T06:15:37.377Z,50.60
2018-12-01T06:16:37.380Z,38.30
2018-12-01T06:17:37.384Z,25.70
2018-12-01T06:18:37.388Z,39.60
2018-12-01T06:19:37.394Z,46.60
2018-12-01T06:20:37.399Z,42.20
2018-12-01T06:21:37.408Z,33.70
2018-12-01T06:22:37.409Z,46.30
2018-12-01T06:23:37.426Z,48.60
2018-12-01T06:24:37.428Z,43.20
2018-12-01T06:25:37.424Z,31.60
2018-12-01T06:26:37.430Z,19.10
2018-12-01T06:27:37.434Z,12.10
2018-12-01T06:28:37.443Z,38.70
2018-12-01T06:29:37.446Z,18.20
2018-12-01T06:30:37.449Z,10.90
2018-12-01T06:31:37.457Z,13.80
2018-12-01T06:32:37.471Z,18.40
2018-12-01T06:33:37.467Z,16.40
2018-12-01T06:34:37.473Z,8.00
2018-12-01T06:35:37.475Z,6.90
2018-12-01T06:36:37.483Z,8.70
2018-12-01T06:37:37.486Z,7.70
2018-12-01T06:38:37.492Z,7.60
2018-12-01T06:39:37.498Z,8.50
2018-12-01T06:40:37.503Z,9.60
2018-12-01T06:41:37.508Z,9.80
2018-12-01T06:42:37.513Z,8.60
2018-12-01T06:43:37.519Z,7.80
2018-12-01T06:44:37.527Z,8.00
2018-12-01T06:45:37.532Z,8.40
2018-12-01T06:46:37.535Z,8.00
2018-12-01T06:47:37.541Z,7.40
2018-12-01T06:48:37.546Z,7.30
2018-12-01T06:49:37.553Z,7.90
2018-12-01T06:50:37.558Z,7.70
2018-12-01T06:51:37.564Z,7.20
2018-12-01T06:52:37.569Z,7.20
2018-12-01T06:53:37.578Z,7.30
2018-12-01T06:54:37.579Z,7.20
2018-12-01T06:55:37.584Z,7.40
2018-12-01T06:56:37.590Z,6.80
2018-12-01T06:57:37.597Z,6.50
2018-12-01T06:58:37.602Z,6.30
2018-12-01T06:59:37.609Z,6.30
2018-12-01T07:00:37.615Z,5.90
2018-12-01T07:01:37.619Z,6.30
2018-12-01T07:02:37.625Z,6.40
2018-12-01T07:03:37.630Z,6.60
2018-12-01T07:04:37.635Z,6.20
2018-12-01T07:05:37.643Z,5.60
2018-12-01T07:06:37.647Z,5.80
2018-12-01T07:07:37.652Z,5.80
2018-12-01T07:08:37.659Z,6.40
2018-12-01T07:09:37.666Z,6.10
2018-12-01T07:10:37.669Z,5.00
2018-12-01T07:11:37.681Z,5.50
2018-12-01T07:12:37.681Z,4.90
2018-12-01T07:13:37.689Z,5.00
2018-12-01T07:14:37.692Z,5.80
2018-12-01T07:15:37.699Z,5.10
2018-12-01T07:16:37.739Z,4.50
2018-12-01T07:17:37.710Z,5.00
2018-12-01T07:18:37.714Z,5.00
2018-12-01T07:19:37.722Z,4.70
2018-12-01T07:20:37.728Z,4.50
2018-12-01T07:21:37.735Z,4.90
2018-12-01T07:22:37.737Z,4.80
2018-12-01T07:23:37.745Z,4.70
2018-12-01T07:24:37.752Z,3.90
2018-12-01T07:25:37.754Z,3.90
2018-12-01T07:26:37.762Z,3.50
2018-12-01T07:27:37.766Z,3.70
2018-12-01T07:28:37.772Z,3.50
2018-12-01T07:29:37.780Z,4.10
2018-12-01T07:30:37.785Z,3.60
2018-12-01T07:31:37.789Z,3.60
2018-12-01T07:32:37.798Z,4.40
2018-12-01T07:33:37.803Z,22.20
2018-12-01T07:34:37.810Z,12.20
2018-12-01T07:35:37.812Z,13.10
2018-12-01T07:36:37.818Z,4.60
2018-12-01T07:37:37.824Z,3.80
2018-12-01T07:38:37.831Z,4.20
2018-12-01T07:39:37.837Z,3.80
2018-12-01T07:40:37.842Z,4.10
2018-12-01T07:41:37.853Z,4.20
2018-12-01T07:42:37.854Z,6.20
2018-12-01T07:43:37.867Z,7.40
2018-12-01T07:44:37.866Z,7.00
2018-12-01T07:45:37.873Z,10.40
2018-12-01T07:46:37.881Z,5.60
2018-12-01T07:47:37.884Z,4.50
2018-12-01T07:48:37.891Z,4.00
2018-12-01T07:49:37.899Z,4.20
2018-12-01T07:50:37.902Z,4.60
2018-12-01T07:51:37.910Z,4.80
2018-12-01T07:52:37.919Z,4.30
2018-12-01T07:53:37.921Z,4.20
2018-12-01T07:54:37.924Z,3.40
2018-12-01T07:55:37.931Z,4.90
2018-12-01T07:56:37.934Z,6.80
2018-12-01T07:57:37.944Z,5.60
2018-12-01T07:58:37.951Z,5.50
2018-12-01T07:59:37.958Z,5.30
2018-12-01T08:00:37.959Z,5.90
2018-12-01T08:01:37.966Z,5.10
2018-12-01T08:02:37.969Z,7.70
2018-12-01T08:03:37.976Z,26.80
2018-12-01T08:04:37.982Z,33.60
2018-12-01T08:05:37.989Z,16.50
2018-12-01T08:06:37.993Z,9.60
2018-12-01T08:07:38.000Z,9.20
2018-12-01T08:08:38.006Z,7.60
2018-12-01T08:09:38.012Z,5.30
2018-12-01T08:10:38.017Z,14.90
2018-12-01T08:11:38.023Z,22.60
2018-12-01T08:12:38.027Z,20.20
2018-12-01T08:13:38.034Z,21.00
2018-12-01T08:14:38.040Z,16.60
2018-12-01T08:15:38.046Z,10.70
2018-12-01T08:16:38.052Z,10.70
2018-12-01T08:17:38.057Z,13.80
2018-12-01T08:18:38.066Z,16.90
2018-12-01T08:19:38.070Z,6.80
2018-12-01T08:20:38.076Z,4.60
2018-12-01T08:21:38.081Z,3.50
2018-12-01T08:22:38.087Z,3.80
2018-12-01T08:23:38.091Z,3.90
2018-12-01T08:24:38.099Z,3.80
2018-12-01T08:25:38.105Z,3.00
2018-12-01T08:26:38.111Z,3.30
2018-12-01T08:27:38.116Z,2.70
2018-12-01T08:28:38.124Z,3.70
2018-12-01T08:29:38.128Z,3.60
2018-12-01T08:30:38.134Z,4.90
2018-12-01T08:31:38.141Z,4.80
2018-12-01T08:32:38.147Z,4.90
2018-12-01T08:33:38.152Z,13.80
2018-12-01T08:34:38.157Z,14.40
2018-12-01T08:35:38.165Z,39.90
2018-12-01T08:36:38.172Z,14.80
2018-12-01T08:37:38.178Z,18.10
2018-12-01T08:38:38.185Z,9.40
2018-12-01T08:39:38.189Z,38.90
2018-12-01T08:40:38.194Z,12.10
2018-12-01T08:41:38.200Z,14.10
2018-12-01T08:42:38.205Z,14.20
2018-12-01T08:43:38.219Z,21.60
2018-12-01T08:44:38.218Z,16.40
2018-12-01T08:45:38.225Z,9.40
2018-12-01T08:46:38.230Z,6.60
2018-12-01T08:47:38.236Z,3.70
2018-12-01T08:48:38.242Z,3.70
2018-12-01T08:49:38.246Z,3.40
2018-12-01T08:50:38.252Z,2.90
2018-12-01T08:51:38.261Z,3.40
2018-12-01T08:52:38.265Z,3.00
2018-12-01T08:53:38.270Z,2.90
2018-12-01T08:54:38.275Z,2.80
2018-12-01T08:55:38.283Z,2.80
2018-12-01T08:56:38.288Z,2.50
2018-12-01T08:57:38.295Z,2.80
2018-12-01T08:58:38.300Z,4.20
2018-12-01T08:59:38.309Z,10.10
2018-12-01T09:00:38.311Z,4.10
2018-12-01T09:01:38.315Z,2.90
2018-12-01T09:02:38.320Z,2.90
2018-12-01T09:03:38.328Z,3.90
2018-12-01T09:04:38.333Z,3.10
2018-12-01T09:05:38.339Z,3.20
2018-12-01T09:06:38.346Z,3.40
2018-12-01T09:07:38.349Z,2.90
2018-12-01T09:08:38.358Z,2.50
2018-12-01T09:09:38.360Z,2.40
2018-12-01T09:10:38.367Z,2.30
2018-12-01T09:11:38.374Z,2.60
2018-12-01T09:12:38.379Z,2.30
2018-12-01T09:13:38.385Z,2.60
2018-12-01T09:14:38.391Z,2.50
2018-12-01T09:15:38.397Z,3.20
2018-12-01T09:16:38.402Z,7.80
2018-12-01T09:17:38.408Z,9.20
2018-12-01T09:18:38.414Z,4.40
2018-12-01T09:19:38.419Z,8.40
2018-12-01T09:20:38.427Z,57.50
2018-12-01T09:21:38.434Z,56.70
2018-12-01T09:22:38.440Z,16.20
2018-12-01T09:23:38.446Z,26.90
2018-12-01T09:24:38.454Z,9.80
2018-12-01T09:25:38.458Z,5.70
2018-12-01T09:26:38.464Z,6.60
2018-12-01T09:27:38.471Z,17.00
2018-12-01T09:28:38.481Z,10.30
2018-12-01T09:29:38.487Z,32.90
2018-12-01T09:30:38.489Z,30.30
2018-12-01T09:31:38.497Z,18.00
2018-12-01T09:32:38.504Z,4.50
2018-12-01T09:33:38.509Z,13.70
2018-12-01T09:34:38.518Z,4.00
2018-12-01T09:35:38.528Z,8.50
2018-12-01T09:36:38.531Z,8.90
2018-12-01T09:37:38.538Z,9.50
2018-12-01T09:38:38.543Z,25.60
2018-12-01T09:39:38.553Z,10.20
2018-12-01T09:40:38.560Z,8.40
2018-12-01T09:41:38.564Z,38.90
2018-12-01T09:42:38.569Z,24.90
2018-12-01T09:43:38.578Z,24.50
2018-12-01T09:44:38.586Z,21.10
2018-12-01T09:45:38.591Z,7.60
2018-12-01T09:46:38.599Z,10.40
2018-12-01T09:47:38.621Z,15.20
2018-12-01T09:48:38.617Z,12.50
2018-12-01T09:49:38.620Z,3.70
2018-12-01T09:50:38.629Z,2.40
2018-12-01T09:51:38.632Z,4.00
2018-12-01T09:52:38.640Z,6.20
2018-12-01T09:53:38.646Z,15.20
2018-12-01T09:54:38.653Z,3.70
2018-12-01T09:55:38.660Z,3.50
2018-12-01T09:56:38.667Z,3.90
2018-12-01T09:57:38.671Z,2.70
2018-12-01T09:58:38.678Z,3.40
2018-12-01T09:59:38.685Z,4.30
2018-12-01T10:00:38.695Z,3.10
2018-12-01T10:01:38.707Z,3.90
2018-12-01T10:02:38.705Z,3.20
2018-12-01T10:03:38.708Z,4.20
2018-12-01T10:04:38.714Z,3.30
2018-12-01T10:05:38.721Z,4.20
2018-12-01T10:06:38.728Z,4.00
2018-12-01T10:07:38.735Z,3.30
2018-12-01T10:08:38.745Z,3.20
2018-12-01T10:09:38.755Z,2.70
2018-12-01T10:10:38.756Z,2.30
2018-12-01T10:11:38.758Z,3.40
2018-12-01T10:12:38.768Z,2.30
2018-12-01T10:13:38.770Z,2.40
2018-12-01T10:14:38.777Z,4.20
2018-12-01T10:15:38.785Z,3.80
2018-12-01T10:16:38.789Z,2.00
2018-12-01T10:17:38.793Z,3.90
2018-12-01T10:18:38.800Z,3.90
2018-12-01T10:19:38.807Z,5.70
2018-12-01T10:20:38.913Z,4.30
2018-12-01T10:21:38.821Z,6.70
2018-12-01T10:22:38.825Z,5.90
2018-12-01T10:23:38.833Z,11.20
2018-12-01T10:24:38.839Z,34.30
2018-12-01T10:25:38.846Z,18.20
2018-12-01T10:26:38.849Z,7.50
2018-12-01T10:27:38.855Z,5.30
2018-12-01T10:28:38.861Z,3.40
2018-12-01T10:29:38.866Z,18.80
2018-12-01T10:30:38.874Z,12.40
2018-12-01T10:31:38.878Z,11.40
2018-12-01T10:32:38.889Z,3.80
2018-12-01T10:33:38.892Z,3.90
2018-12-01T10:34:38.906Z,3.00
2018-12-01T10:35:38.906Z,2.80
2018-12-01T10:36:38.914Z,2.70
2018-12-01T10:37:38.918Z,2.90
2018-12-01T10:38:38.920Z,3.50
2018-12-01T10:39:38.926Z,2.60
2018-12-01T10:40:38.934Z,2.90
2018-12-01T10:41:38.940Z,2.90
2018-12-01T10:42:38.948Z,2.60
2018-12-01T10:43:38.960Z,3.70
2018-12-01T10:44:38.957Z,4.10
2018-12-01T10:45:38.962Z,25.70
2018-12-01T10:46:38.969Z,7.20
2018-12-01T10:47:38.977Z,4.10
2018-12-01T10:48:38.984Z,2.80
2018-12-01T10:49:38.987Z,3.00
2018-12-01T10:50:39.010Z,2.40
2018-12-01T10:51:39.001Z,1.70
2018-12-01T10:52:39.007Z,2.00
2018-12-01T10:53:39.016Z,1.60
2018-12-01T10:54:39.031Z,2.20
2018-12-01T10:55:39.028Z,1.50
2018-12-01T10:56:39.036Z,1.50
2018-12-01T10:57:39.039Z,1.20
2018-12-01T10:58:39.048Z,1.40
2018-12-01T10:59:39.054Z,1.40
2018-12-01T11:00:39.062Z,1.30
2018-12-01T11:01:39.067Z,1.50
2018-12-01T11:02:39.075Z,1.40
2018-12-01T11:03:39.086Z,1.50
2018-12-01T11:04:39.089Z,1.60
2018-12-01T11:05:39.095Z,1.50
2018-12-01T11:06:39.105Z,1.40
2018-12-01T11:07:39.109Z,1.50
2018-12-01T11:08:39.117Z,1.30
2018-12-01T11:09:39.122Z,1.60
2018-12-01T11:10:39.136Z,1.70
2018-12-01T11:11:39.140Z,1.50
2018-12-01T11:12:39.146Z,1.60
2018-12-01T11:13:39.153Z,1.60
2018-12-01T11:14:39.160Z,1.40
2018-12-01T11:15:39.165Z,1.70
2018-12-01T11:16:39.175Z,1.50
2018-12-01T11:17:39.180Z,1.80
2018-12-01T11:18:39.187Z,1.70
2018-12-01T11:19:39.196Z,1.60
2018-12-01T11:20:39.206Z,1.80
2018-12-01T11:21:39.211Z,1.70
2018-12-01T11:22:39.215Z,2.00
2018-12-01T11:23:39.223Z,2.00
2018-12-01T11:24:39.233Z,2.00
2018-12-01T11:25:39.236Z,2.10
2018-12-01T11:26:39.243Z,2.20
2018-12-01T11:27:39.251Z,2.70
2018-12-01T11:28:39.303Z,2.00
2018-12-01T11:29:39.266Z,2.20
2018-12-01T11:30:39.273Z,2.10
2018-12-01T11:31:39.283Z,1.60
2018-12-01T11:32:39.288Z,2.00
2018-12-01T11:33:39.295Z,2.20
2018-12-01T11:34:39.302Z,2.10
2018-12-01T11:35:39.309Z,2.00
2018-12-01T11:36:39.316Z,1.70
2018-12-01T11:37:39.324Z,1.80
2018-12-01T11:38:39.334Z,1.70
2018-12-01T11:39:39.338Z,1.80
2018-12-01T11:40:39.346Z,1.60
2018-12-01T11:41:39.352Z,1.50
2018-12-01T11:42:39.360Z,1.80
2018-12-01T11:43:39.369Z,1.60
2018-12-01T11:44:39.377Z,1.40
2018-12-01T11:45:39.384Z,1.70
2018-12-01T11:46:39.397Z,1.80
2018-12-01T11:47:39.401Z,2.00
2018-12-01T11:48:39.422Z,2.20
2018-12-01T11:49:39.417Z,1.90
2018-12-01T11:50:39.429Z,1.70
2018-12-01T11:51:39.435Z,2.20
2018-12-01T11:52:39.441Z,2.10
2018-12-01T11:53:39.448Z,2.00
2018-12-01T11:54:39.459Z,2.20
2018-12-01T11:55:39.464Z,1.50
2018-12-01T11:56:39.475Z,1.30
2018-12-01T11:57:39.480Z,1.60
2018-12-01T11:58:39.491Z,1.70
2018-12-01T11:59:39.502Z,2.20
2018-12-01T12:00:39.508Z,2.30
2018-12-01T12:01:39.515Z,2.10
2018-12-01T12:02:39.524Z,2.10
2018-12-01T12:03:39.531Z,2.50
2018-12-01T12:04:39.538Z,2.50
2018-12-01T12:05:39.545Z,2.00
2018-12-01T12:06:39.553Z,2.10
2018-12-01T12:07:39.567Z,2.00
2018-12-01T12:08:39.571Z,1.60
2018-12-01T12:09:39.579Z,1.80
2018-12-01T12:10:39.589Z,1.90
2018-12-01T12:11:39.594Z,2.00
2018-12-01T12:12:39.602Z,2.20
2018-12-01T12:13:39.609Z,2.10
2018-12-01T12:14:39.618Z,1.90
2018-12-01T12:15:39.636Z,1.90
2018-12-01T12:16:39.636Z,2.30
2018-12-01T12:17:39.646Z,2.30
2018-12-01T12:18:39.658Z,2.20
2018-12-01T12:19:39.673Z,2.40
2018-12-01T12:20:39.667Z,2.10
2018-12-01T12:21:39.678Z,2.10
2018-12-01T12:22:39.684Z,1.80
2018-12-01T12:23:39.694Z,2.00
2018-12-01T12:24:39.702Z,1.70
2018-12-01T12:25:40.445Z,1.90
2018-12-01T12:26:39.722Z,1.80
2018-12-01T12:27:39.732Z,2.10
2018-12-01T12:28:39.738Z,1.90
2018-12-01T12:29:39.747Z,2.00
2018-12-01T12:30:39.755Z,2.10
2018-12-01T12:31:39.767Z,1.90
2018-12-01T12:32:39.777Z,2.00
2018-12-01T12:33:39.784Z,2.00
2018-12-01T12:34:39.795Z,1.70
2018-12-01T12:35:39.805Z,1.90
2018-12-01T12:36:39.814Z,1.80
2018-12-01T12:37:39.822Z,1.70
2018-12-01T12:38:39.833Z,1.90
2018-12-01T12:39:39.843Z,1.60
2018-12-01T12:40:39.856Z,2.20
2018-12-01T12:41:39.861Z,2.00
2018-12-01T12:42:39.870Z,1.90
2018-12-01T12:43:39.881Z,1.60
2018-12-01T12:44:39.916Z,1.90
2018-12-01T12:45:39.901Z,2.00
2018-12-01T12:46:39.911Z,1.80
2018-12-01T12:47:39.917Z,1.80
2018-12-01T12:48:39.931Z,1.80
2018-12-01T12:49:39.937Z,1.50
2018-12-01T12:50:39.947Z,1.60
2018-12-01T12:51:39.956Z,1.40
2018-12-01T12:52:39.967Z,1.50
2018-12-01T12:53:39.973Z,1.80
2018-12-01T12:54:39.986Z,1.60
2018-12-01T12:55:39.995Z,1.70
2018-12-01T12:56:40.005Z,1.50
2018-12-01T12:57:40.014Z,1.80
2018-12-01T12:58:40.023Z,1.60
2018-12-01T12:59:40.032Z,1.50
2018-12-01T13:00:40.042Z,2.00
2018-12-01T13:01:40.050Z,1.90
2018-12-01T13:02:40.060Z,1.90
2018-12-01T13:03:40.080Z,1.80
2018-12-01T13:04:40.079Z,1.80